createdAt,value
2019-05-30T00:01:04.751Z,3.10
2019-05-30T00:03:34.703Z,3.67
2019-05-30T00:06:04.741Z,4.57
2019-05-30T00:08:35.938Z,3.93
2019-05-30T00:11:05.875Z,4.10
2019-05-30T00:13:35.882Z,4.27
2019-05-30T00:16:05.888Z,3.10
2019-05-30T00:18:37.276Z,3.10
2019-05-30T00:21:07.157Z,2.90
2019-05-30T00:23:37.429Z,3.33
2019-05-30T00:26:07.591Z,3.50
2019-05-30T00:28:37.697Z,2.70
2019-05-30T00:31:07.665Z,3.10
2019-05-30T00:33:37.909Z,6.10
2019-05-30T00:36:07.994Z,6.23
2019-05-30T00:38:38.093Z,3.33
2019-05-30T00:41:08.554Z,3.00
2019-05-30T00:43:38.527Z,3.57
2019-05-30T00:46:08.413Z,2.93
2019-05-30T00:48:38.357Z,3.47
2019-05-30T00:51:08.324Z,2.43
2019-05-30T00:53:38.318Z,2.83
2019-05-30T00:56:08.285Z,3.57
2019-05-30T00:58:38.243Z,3.53
2019-05-30T01:01:08.306Z,2.70
2019-05-30T01:03:38.316Z,5.80
2019-05-30T01:06:08.254Z,6.33
2019-05-30T01:08:38.597Z,2.73
2019-05-30T01:11:08.898Z,2.50
2019-05-30T01:13:38.880Z,6.40
2019-05-30T01:16:08.841Z,4.13
2019-05-30T01:18:38.803Z,4.50
2019-05-30T01:21:08.742Z,3.13
2019-05-30T01:23:43.698Z,2.90
2019-05-30T01:26:14.074Z,2.70
2019-05-30T01:28:43.963Z,2.60
2019-05-30T01:31:13.992Z,2.90
2019-05-30T01:33:43.897Z,3.63
2019-05-30T01:36:13.926Z,2.37
2019-05-30T01:38:43.820Z,3.00
2019-05-30T01:41:16.893Z,2.70
2019-05-30T01:43:45.543Z,2.40
2019-05-30T01:46:15.427Z,5.83
2019-05-30T01:48:45.762Z,2.73
2019-05-30T01:51:15.627Z,2.50
2019-05-30T01:53:45.596Z,3.13
2019-05-30T01:56:15.452Z,2.63
2019-05-30T01:58:45.428Z,3.80
2019-05-30T02:01:24.350Z,2.73
2019-05-30T02:03:47.075Z,3.10
2019-05-30T02:06:17.310Z,4.73
2019-05-30T02:08:47.292Z,2.80
2019-05-30T02:11:17.230Z,3.73
2019-05-30T02:13:47.019Z,4.23
2019-05-30T02:16:16.992Z,3.10
2019-05-30T02:18:46.874Z,5.20
2019-05-30T02:21:16.887Z,3.77
2019-05-30T02:23:46.975Z,3.53
2019-05-30T02:26:16.849Z,3.43
2019-05-30T02:28:46.733Z,3.10
2019-05-30T02:31:37.277Z,3.73
2019-05-30T02:33:48.693Z,2.87
2019-05-30T02:36:19.202Z,3.47
2019-05-30T02:38:49.167Z,4.43
2019-05-30T02:41:19.064Z,4.70
2019-05-30T02:43:49.101Z,3.07
2019-05-30T02:46:19.119Z,4.30
2019-05-30T02:48:59.036Z,4.67
2019-05-30T02:51:20.961Z,10.07
2019-05-30T02:53:51.275Z,3.47
2019-05-30T02:56:21.351Z,3.40
2019-05-30T02:58:51.337Z,5.37
2019-05-30T03:01:21.601Z,4.33
2019-05-30T03:03:51.874Z,4.90
2019-05-30T03:06:22.226Z,3.93
2019-05-30T03:08:53.303Z,3.90
2019-05-30T03:11:23.651Z,3.80
2019-05-30T03:13:53.965Z,3.40
2019-05-30T03:16:23.979Z,6.53
2019-05-30T03:18:53.932Z,4.20
2019-05-30T03:21:23.897Z,5.00
2019-05-30T03:23:53.978Z,4.53
2019-05-30T03:26:24.288Z,4.50
2019-05-30T03:28:55.206Z,4.97
2019-05-30T03:31:29.592Z,5.63
2019-05-30T03:33:58.818Z,4.83
2019-05-30T03:36:31.602Z,5.70
2019-05-30T03:39:00.494Z,4.97
2019-05-30T03:41:30.532Z,4.20
2019-05-30T03:44:00.487Z,4.17
2019-05-30T03:46:35.092Z,4.90
2019-05-30T03:49:08.772Z,4.93
2019-05-30T03:51:42.837Z,7.80
2019-05-30T03:54:14.149Z,5.50
2019-05-30T03:56:48.374Z,4.50
2019-05-30T03:59:32.276Z,4.87
2019-05-30T04:02:11.788Z,4.10
2019-05-30T04:04:47.960Z,4.20
2019-05-30T04:07:20.897Z,5.07
2019-05-30T04:09:54.170Z,5.43
2019-05-30T04:12:33.571Z,6.57
2019-05-30T04:15:09.881Z,5.00
2019-05-30T04:17:39.999Z,6.03
2019-05-30T04:20:11.550Z,4.90
2019-05-30T04:22:41.530Z,4.87
2019-05-30T04:25:12.551Z,5.87
2019-05-30T04:27:42.599Z,5.97
2019-05-30T04:30:14.278Z,4.93
2019-05-30T04:32:44.238Z,4.63
2019-05-30T04:35:14.663Z,5.50
2019-05-30T04:37:45.163Z,6.40
2019-05-30T04:40:15.776Z,9.30
2019-05-30T04:42:46.931Z,4.28
2019-05-30T04:45:17.975Z,4.95
2019-05-30T04:47:49.667Z,6.10
2019-05-30T04:50:20.689Z,5.47
2019-05-30T04:52:51.009Z,5.00
2019-05-30T04:55:23.011Z,6.03
2019-05-30T04:57:52.751Z,4.60
2019-05-30T05:00:22.834Z,4.70
2019-05-30T05:02:53.166Z,5.87
2019-05-30T05:05:26.911Z,5.72
2019-05-30T05:07:57.463Z,5.93
2019-05-30T05:10:27.416Z,7.63
2019-05-30T05:12:57.296Z,4.50
2019-05-30T05:15:27.551Z,4.40
2019-05-30T05:17:57.532Z,4.90
2019-05-30T05:20:27.510Z,6.43
2019-05-30T05:22:57.438Z,5.43
2019-05-30T05:25:27.402Z,6.78
2019-05-30T05:27:57.362Z,5.17
2019-05-30T05:30:28.711Z,6.00
2019-05-30T05:32:58.771Z,5.08
2019-05-30T05:35:28.839Z,5.37
2019-05-30T05:37:58.914Z,6.83
2019-05-30T05:40:28.957Z,8.05
2019-05-30T05:42:59.091Z,4.07
2019-05-30T05:45:29.064Z,4.53
2019-05-30T05:47:59.195Z,5.17
2019-05-30T05:50:29.349Z,4.22
2019-05-30T05:52:59.511Z,4.97
2019-05-30T05:55:29.646Z,5.65
2019-05-30T05:57:59.776Z,4.35
2019-05-30T06:00:29.904Z,4.40
2019-05-30T06:03:00.095Z,4.78
2019-05-30T06:05:30.262Z,4.15
2019-05-30T06:08:00.357Z,4.75
2019-05-30T06:10:30.511Z,5.03
2019-05-30T06:13:00.650Z,4.22
2019-05-30T06:15:30.844Z,5.72
2019-05-30T06:18:01.158Z,4.67
2019-05-30T06:20:31.228Z,5.00
2019-05-30T06:23:01.428Z,6.00
2019-05-30T06:25:32.977Z,4.83
2019-05-30T06:28:03.319Z,5.62
2019-05-30T06:30:33.412Z,8.18
2019-05-30T06:33:03.372Z,6.92
2019-05-30T06:35:33.504Z,4.92
2019-05-30T06:38:03.630Z,7.53
2019-05-30T06:40:33.985Z,4.70
2019-05-30T06:43:04.227Z,3.85
2019-05-30T06:45:34.266Z,3.98
2019-05-30T06:48:04.478Z,4.72
2019-05-30T06:50:34.693Z,5.20
2019-05-30T06:53:05.168Z,3.77
2019-05-30T06:55:35.358Z,3.52
2019-05-30T06:58:05.562Z,3.55
2019-05-30T07:00:35.856Z,4.53
2019-05-30T07:03:06.203Z,3.60
2019-05-30T07:05:36.974Z,7.28
2019-05-30T07:08:07.622Z,3.83
2019-05-30T07:10:37.729Z,5.62
2019-05-30T07:13:07.881Z,3.87
2019-05-30T07:15:38.035Z,4.83
2019-05-30T07:18:08.369Z,3.07
2019-05-30T07:20:39.023Z,3.72
2019-05-30T07:23:09.069Z,6.47
2019-05-30T07:25:39.207Z,4.03
2019-05-30T07:28:09.313Z,5.72
2019-05-30T07:30:39.370Z,4.40
2019-05-30T07:33:09.389Z,3.50
2019-05-30T07:35:39.700Z,4.03
2019-05-30T07:38:10.031Z,4.55
2019-05-30T07:40:40.017Z,3.12
2019-05-30T07:43:10.083Z,5.03
2019-05-30T07:45:40.097Z,3.22
2019-05-30T07:48:10.123Z,4.65
2019-05-30T07:50:39.996Z,4.12
2019-05-30T07:53:10.230Z,4.17
2019-05-30T07:55:40.238Z,3.92
2019-05-30T07:58:10.301Z,5.17
2019-05-30T08:00:40.296Z,3.90
2019-05-30T08:03:10.613Z,5.97
2019-05-30T08:05:40.949Z,4.37
2019-05-30T08:08:11.270Z,4.72
2019-05-30T08:10:41.245Z,4.28
2019-05-30T08:13:11.253Z,4.58
2019-05-30T08:15:43.887Z,3.62
2019-05-30T08:18:13.282Z,3.77
2019-05-30T08:20:43.107Z,4.10
2019-05-30T08:23:14.249Z,7.03
2019-05-30T08:25:44.251Z,3.27
2019-05-30T08:28:14.139Z,2.33
2019-05-30T08:30:44.346Z,4.65
2019-05-30T08:33:14.456Z,4.87
2019-05-30T08:35:49.939Z,3.65
2019-05-30T08:38:17.170Z,7.92
2019-05-30T08:40:48.067Z,3.17
2019-05-30T08:43:18.157Z,3.00
2019-05-30T08:45:48.128Z,6.00
2019-05-30T08:48:18.436Z,9.13
2019-05-30T08:50:48.399Z,3.02
2019-05-30T08:53:18.358Z,5.78
2019-05-30T08:55:48.677Z,4.85
2019-05-30T08:58:18.638Z,4.47
2019-05-30T09:00:48.614Z,4.08
2019-05-30T09:03:18.487Z,5.17
2019-05-30T09:06:02.492Z,5.08
2019-05-30T09:08:20.263Z,5.08
2019-05-30T09:10:50.264Z,3.72
2019-05-30T09:13:20.278Z,5.75
2019-05-30T09:15:50.267Z,4.15
2019-05-30T09:18:20.566Z,5.17
2019-05-30T09:20:50.515Z,3.67
2019-05-30T09:23:20.473Z,4.03
2019-05-30T09:25:51.423Z,4.97
2019-05-30T09:28:21.390Z,3.67
2019-05-30T09:30:51.379Z,3.47
2019-05-30T09:33:21.344Z,5.37
2019-05-30T09:35:51.542Z,4.03
2019-05-30T09:38:21.483Z,3.50
2019-05-30T09:40:51.777Z,4.95
2019-05-30T09:43:21.883Z,3.45
2019-05-30T09:45:51.895Z,6.60
2019-05-30T09:48:22.225Z,3.50
2019-05-30T09:50:52.260Z,3.30
2019-05-30T09:53:22.242Z,2.67
2019-05-30T09:55:53.098Z,3.37
2019-05-30T09:58:23.281Z,3.17
2019-05-30T10:00:53.323Z,2.90
2019-05-30T10:03:23.313Z,2.77
2019-05-30T10:05:53.883Z,4.12
2019-05-30T10:08:24.955Z,4.08
2019-05-30T10:10:55.004Z,3.27
2019-05-30T10:13:25.003Z,4.58
2019-05-30T10:15:56.745Z,2.90
2019-05-30T10:18:27.153Z,2.50
2019-05-30T10:20:57.178Z,3.67
2019-05-30T10:23:28.243Z,3.10
2019-05-30T10:25:58.212Z,2.60
2019-05-30T10:28:28.199Z,2.60
2019-05-30T10:30:59.455Z,4.12
2019-05-30T10:33:29.885Z,3.10
2019-05-30T10:35:59.852Z,5.72
2019-05-30T10:38:29.929Z,3.15
2019-05-30T10:41:00.028Z,3.80
2019-05-30T10:43:31.177Z,3.22
2019-05-30T10:46:01.258Z,6.28
2019-05-30T10:48:31.233Z,3.95
2019-05-30T10:51:01.194Z,5.28
2019-05-30T10:53:31.146Z,4.28
2019-05-30T10:56:01.104Z,2.45
2019-05-30T10:58:31.354Z,6.15
2019-05-30T11:01:01.391Z,4.20
2019-05-30T11:03:31.426Z,4.17
2019-05-30T11:06:12.512Z,2.85
2019-05-30T11:08:44.389Z,2.98
2019-05-30T11:11:14.408Z,6.05
2019-05-30T11:13:44.872Z,3.87
2019-05-30T11:16:14.772Z,3.50
2019-05-30T11:18:44.669Z,5.03
2019-05-30T11:21:14.974Z,3.20
2019-05-30T11:23:45.255Z,3.65
2019-05-30T11:26:15.271Z,3.47
2019-05-30T11:28:45.142Z,3.02
2019-05-30T11:31:15.114Z,5.97
2019-05-30T11:33:44.965Z,4.25
2019-05-30T11:36:14.846Z,4.17
2019-05-30T11:38:44.824Z,4.90
2019-05-30T11:41:14.821Z,4.85
2019-05-30T11:43:44.815Z,4.53
2019-05-30T11:46:14.949Z,4.30
2019-05-30T11:48:44.832Z,6.40
2019-05-30T11:51:14.721Z,4.35
2019-05-30T11:53:44.523Z,4.87
2019-05-30T11:56:14.401Z,8.70
2019-05-30T11:58:44.372Z,4.92
2019-05-30T12:01:14.666Z,4.67
2019-05-30T12:03:44.728Z,5.87
2019-05-30T12:06:14.719Z,3.77
2019-05-30T12:08:45.098Z,4.28
2019-05-30T12:11:15.083Z,6.78
2019-05-30T12:13:45.027Z,5.85
2019-05-30T12:16:15.333Z,6.00
2019-05-30T12:18:45.271Z,4.62
2019-05-30T12:21:15.427Z,8.40
2019-05-30T12:23:45.373Z,6.08
2019-05-30T12:26:15.703Z,8.15
2019-05-30T12:28:45.575Z,5.60
2019-05-30T12:31:15.565Z,5.72
2019-05-30T12:33:45.403Z,5.58
2019-05-30T12:36:15.472Z,5.37
2019-05-30T12:38:45.434Z,8.78
2019-05-30T12:41:15.410Z,5.55
2019-05-30T12:43:45.283Z,5.72
2019-05-30T12:46:15.550Z,7.35
2019-05-30T12:48:45.425Z,5.50
2019-05-30T12:51:15.393Z,5.58
2019-05-30T12:53:45.354Z,6.78
2019-05-30T12:56:15.396Z,5.92
2019-05-30T12:58:45.310Z,5.28
2019-05-30T13:01:15.270Z,6.25
2019-05-30T13:03:45.171Z,5.92
2019-05-30T13:06:15.316Z,6.97
2019-05-30T13:08:45.277Z,5.65
2019-05-30T13:11:15.244Z,5.15
2019-05-30T13:13:45.118Z,6.62
2019-05-30T13:16:15.089Z,10.20
2019-05-30T13:18:44.966Z,8.65
2019-05-30T13:21:14.968Z,11.88
2019-05-30T13:23:44.946Z,10.58
2019-05-30T13:26:14.843Z,12.45
2019-05-30T13:28:44.746Z,9.38
2019-05-30T13:31:14.777Z,10.75
2019-05-30T13:33:44.752Z,11.57
2019-05-30T13:36:14.694Z,14.18
2019-05-30T13:38:44.726Z,11.20
2019-05-30T13:41:14.689Z,12.93
2019-05-30T13:43:44.653Z,11.70
2019-05-30T13:46:15.700Z,12.60
2019-05-30T13:48:45.952Z,12.88
2019-05-30T13:51:15.825Z,10.18
2019-05-30T13:53:45.757Z,10.82
2019-05-30T13:56:16.031Z,10.50
2019-05-30T13:58:46.108Z,10.45
2019-05-30T14:01:16.044Z,9.65
2019-05-30T14:03:46.395Z,11.45
2019-05-30T14:06:16.477Z,8.85
2019-05-30T14:08:46.730Z,14.03
2019-05-30T14:11:16.697Z,9.83
2019-05-30T14:13:46.662Z,8.08
2019-05-30T14:16:16.614Z,8.53
2019-05-30T14:18:46.515Z,9.85
2019-05-30T14:21:17.438Z,8.95
2019-05-30T14:23:47.448Z,11.50
2019-05-30T14:26:17.482Z,11.78
2019-05-30T14:28:47.384Z,8.55
2019-05-30T14:31:17.255Z,9.60
2019-05-30T14:33:47.135Z,9.38
2019-05-30T14:36:17.044Z,11.22
2019-05-30T14:38:57.694Z,11.08
2019-05-30T14:41:18.677Z,9.45
2019-05-30T14:43:48.691Z,11.40
2019-05-30T14:46:18.661Z,11.10
2019-05-30T14:48:48.605Z,9.48
2019-05-30T14:51:18.593Z,12.37
2019-05-30T14:53:48.761Z,10.88
2019-05-30T14:56:18.592Z,13.08
2019-05-30T14:58:48.469Z,12.40
2019-05-30T15:01:18.495Z,11.48
2019-05-30T15:03:48.434Z,12.28
2019-05-30T15:06:18.391Z,12.23
2019-05-30T15:08:48.537Z,10.95
2019-05-30T15:11:18.542Z,13.80
2019-05-30T15:13:48.524Z,13.20
2019-05-30T15:16:18.704Z,12.33
2019-05-30T15:18:48.763Z,17.50
2019-05-30T15:21:18.719Z,11.97
2019-05-30T15:23:48.905Z,20.15
2019-05-30T15:26:19.820Z,22.75
2019-05-30T15:28:49.933Z,20.52
2019-05-30T15:31:19.910Z,15.48
2019-05-30T15:33:50.103Z,17.75
2019-05-30T15:36:20.032Z,20.10
2019-05-30T15:38:50.238Z,18.75
2019-05-30T15:41:21.078Z,16.93
2019-05-30T15:43:51.064Z,17.00
2019-05-30T15:46:21.141Z,19.87
2019-05-30T15:48:51.058Z,18.50
2019-05-30T15:51:21.077Z,19.65
2019-05-30T15:53:51.072Z,18.82
2019-05-30T15:56:21.075Z,15.28
2019-05-30T15:58:51.127Z,14.28
2019-05-30T16:01:21.092Z,15.35
2019-05-30T16:03:51.046Z,17.17
2019-05-30T16:06:21.032Z,14.28
2019-05-30T16:08:51.014Z,16.90
2019-05-30T16:11:21.251Z,14.65
2019-05-30T16:13:51.487Z,14.30
2019-05-30T16:16:36.073Z,14.90
2019-05-30T16:18:53.055Z,13.10
2019-05-30T16:21:22.943Z,17.17
2019-05-30T16:23:52.745Z,13.83
2019-05-30T16:26:22.741Z,13.85
2019-05-30T16:28:52.618Z,13.05
2019-05-30T16:31:23.579Z,14.53
2019-05-30T16:33:53.493Z,13.80
2019-05-30T16:36:23.663Z,14.98
2019-05-30T16:38:53.478Z,15.15
2019-05-30T16:41:23.734Z,17.35
2019-05-30T16:43:53.616Z,14.38
2019-05-30T16:46:23.595Z,15.40
2019-05-30T16:48:53.824Z,14.50
2019-05-30T16:51:23.787Z,12.50
2019-05-30T16:53:55.346Z,14.40
2019-05-30T16:56:25.672Z,12.28
2019-05-30T16:58:56.730Z,14.13
2019-05-30T17:01:26.705Z,13.50
2019-05-30T17:03:56.551Z,13.80
2019-05-30T17:06:26.529Z,11.93
2019-05-30T17:08:56.914Z,11.90
2019-05-30T17:11:27.251Z,13.78
2019-05-30T17:13:57.228Z,13.05
2019-05-30T17:16:27.486Z,10.20
2019-05-30T17:18:58.082Z,11.40
2019-05-30T17:21:28.041Z,12.45
2019-05-30T17:23:57.921Z,12.73
2019-05-30T17:26:27.816Z,15.10
2019-05-30T17:28:59.016Z,13.43
2019-05-30T17:31:29.054Z,12.98
2019-05-30T17:33:59.147Z,14.20
2019-05-30T17:36:29.107Z,14.23
2019-05-30T17:38:59.136Z,16.25
2019-05-30T17:41:29.074Z,13.00
2019-05-30T17:43:59.118Z,18.00
2019-05-30T17:46:30.117Z,13.98
2019-05-30T17:49:00.251Z,14.20
2019-05-30T17:51:30.158Z,14.43
2019-05-30T17:54:01.268Z,13.70
2019-05-30T17:56:31.220Z,14.15
2019-05-30T17:59:01.232Z,12.93
2019-05-30T18:01:31.102Z,13.80
2019-05-30T18:04:01.072Z,10.30
2019-05-30T18:06:31.423Z,11.60
2019-05-30T18:09:01.298Z,11.30
2019-05-30T18:11:32.826Z,12.47
2019-05-30T18:14:03.110Z,11.35
2019-05-30T18:16:33.162Z,11.57
2019-05-30T18:19:03.405Z,11.15
2019-05-30T18:21:33.484Z,11.50
2019-05-30T18:24:03.605Z,13.10
2019-05-30T18:26:33.623Z,12.47
2019-05-30T18:29:03.586Z,11.40
2019-05-30T18:31:33.441Z,13.00
2019-05-30T18:34:03.390Z,11.75
2019-05-30T18:36:33.305Z,14.55
2019-05-30T18:39:03.529Z,12.35
2019-05-30T18:41:33.969Z,12.13
2019-05-30T18:44:04.085Z,12.33
2019-05-30T18:46:38.385Z,11.70
2019-05-30T18:49:06.751Z,10.88
2019-05-30T18:51:37.858Z,10.85
2019-05-30T18:54:07.867Z,13.25
2019-05-30T18:56:37.833Z,12.93
2019-05-30T18:59:07.817Z,12.95
2019-05-30T19:01:37.993Z,11.43
2019-05-30T19:04:08.180Z,13.43
2019-05-30T19:06:38.371Z,12.82
2019-05-30T19:09:08.629Z,10.63
2019-05-30T19:11:38.693Z,17.80
2019-05-30T19:14:08.834Z,14.00
2019-05-30T19:16:39.194Z,11.57
2019-05-30T19:19:09.102Z,13.80
2019-05-30T19:21:39.066Z,13.70
2019-05-30T19:24:09.055Z,14.38
2019-05-30T19:26:38.847Z,10.93
2019-05-30T19:29:09.205Z,15.78
2019-05-30T19:31:39.231Z,13.18
2019-05-30T19:34:09.115Z,12.58
2019-05-30T19:36:39.076Z,12.93
2019-05-30T19:39:09.354Z,14.43
2019-05-30T19:41:53.427Z,13.08
2019-05-30T19:44:10.681Z,16.02
2019-05-30T19:46:40.654Z,14.15
2019-05-30T19:49:10.635Z,13.72
2019-05-30T19:51:40.555Z,16.93
2019-05-30T19:54:10.468Z,15.78
2019-05-30T19:56:42.030Z,15.50
2019-05-30T19:59:12.021Z,13.85
2019-05-30T20:01:42.015Z,16.67
2019-05-30T20:04:12.077Z,13.32
2019-05-30T20:06:42.042Z,15.43
2019-05-30T20:09:12.334Z,16.20
2019-05-30T20:11:42.299Z,14.23
2019-05-30T20:14:12.321Z,14.70
2019-05-30T20:16:42.141Z,15.38
2019-05-30T20:19:12.114Z,16.25
2019-05-30T20:21:42.266Z,20.80
2019-05-30T20:24:12.251Z,17.55
2019-05-30T20:26:42.758Z,18.60
2019-05-30T20:29:14.097Z,14.95
2019-05-30T20:31:44.134Z,16.05
2019-05-30T20:34:14.454Z,16.42
2019-05-30T20:36:44.426Z,16.62
2019-05-30T20:39:14.411Z,15.48
2019-05-30T20:41:44.421Z,16.17
2019-05-30T20:44:14.326Z,19.23
2019-05-30T20:46:44.226Z,16.95
2019-05-30T20:49:14.225Z,15.95
2019-05-30T20:51:44.095Z,16.80
2019-05-30T20:54:14.005Z,16.60
2019-05-30T20:56:48.587Z,16.23
2019-05-30T20:59:17.338Z,16.55
2019-05-30T21:01:47.386Z,17.25
2019-05-30T21:04:17.934Z,14.25
2019-05-30T21:06:48.777Z,15.38
2019-05-30T21:09:28.941Z,19.32
2019-05-30T21:11:53.475Z,13.10
2019-05-30T21:14:27.425Z,13.05
2019-05-30T21:16:58.164Z,14.35
2019-05-30T21:19:29.493Z,14.45
2019-05-30T21:21:59.515Z,14.83
2019-05-30T21:24:29.507Z,14.10
2019-05-30T21:26:59.555Z,15.08
2019-05-30T21:29:29.667Z,15.35
2019-05-30T21:31:59.622Z,15.72
2019-05-30T21:34:30.138Z,16.62
2019-05-30T21:37:00.546Z,15.38
2019-05-30T21:39:30.861Z,12.60
2019-05-30T21:42:00.806Z,12.85
2019-05-30T21:44:30.865Z,12.30
2019-05-30T21:47:00.811Z,12.25
2019-05-30T21:49:30.844Z,11.90
2019-05-30T21:52:00.933Z,10.48
2019-05-30T21:54:30.834Z,10.93
2019-05-30T21:57:01.013Z,12.65
2019-05-30T21:59:31.016Z,11.53
2019-05-30T22:02:00.970Z,10.20
2019-05-30T22:04:30.780Z,13.08
2019-05-30T22:07:00.795Z,11.22
2019-05-30T22:09:30.742Z,13.93
2019-05-30T22:12:00.631Z,13.30
2019-05-30T22:14:30.574Z,13.25
2019-05-30T22:17:00.445Z,14.93
2019-05-30T22:19:30.552Z,12.82
2019-05-30T22:22:00.511Z,15.10
2019-05-30T22:24:30.416Z,13.53
2019-05-30T22:27:01.337Z,15.65
2019-05-30T22:29:31.259Z,13.25
2019-05-30T22:32:01.182Z,12.65
2019-05-30T22:34:31.158Z,10.72
2019-05-30T22:37:01.108Z,11.03
2019-05-30T22:39:31.008Z,12.10
2019-05-30T22:42:00.970Z,13.50
2019-05-30T22:44:31.053Z,13.03
2019-05-30T22:47:00.951Z,12.58
2019-05-30T22:49:30.849Z,11.85
2019-05-30T22:52:00.741Z,11.20
2019-05-30T22:54:30.756Z,13.35
2019-05-30T22:57:01.504Z,12.47
2019-05-30T22:59:31.688Z,13.15
2019-05-30T23:02:01.588Z,14.28
2019-05-30T23:04:31.488Z,11.38
2019-05-30T23:07:02.437Z,13.40
2019-05-30T23:09:32.930Z,10.68
2019-05-30T23:12:02.873Z,12.20
2019-05-30T23:14:32.823Z,12.60
2019-05-30T23:17:02.856Z,10.48
2019-05-30T23:19:33.277Z,14.15
2019-05-30T23:22:03.166Z,12.95
2019-05-30T23:24:33.446Z,13.20
2019-05-30T23:27:03.368Z,12.35
2019-05-30T23:29:33.890Z,10.75
2019-05-30T23:32:03.810Z,14.53
2019-05-30T23:34:33.801Z,10.68
2019-05-30T23:37:03.936Z,11.18
2019-05-30T23:39:33.864Z,14.10
2019-05-30T23:42:03.898Z,10.18
2019-05-30T23:44:33.943Z,8.98
2019-05-30T23:47:03.973Z,12.10
2019-05-30T23:49:33.853Z,14.10
2019-05-30T23:52:04.792Z,11.22
2019-05-30T23:54:34.752Z,12.40
2019-05-30T23:57:05.023Z,10.95
2019-05-30T23:59:35.006Z,11.63
